createdAt,value
2017-11-13T00:00:52.570Z,10.87
2017-11-13T00:03:20.791Z,8.27
2017-11-13T00:05:51.203Z,11.53
2017-11-13T00:08:18.622Z,11.70
2017-11-13T00:10:46.042Z,8.97
2017-11-13T00:13:14.471Z,10.03
2017-11-13T00:15:43.419Z,11.67
2017-11-13T00:18:13.945Z,11.80
2017-11-13T00:20:42.430Z,10.23
2017-11-13T00:23:11.741Z,11.63
2017-11-13T00:25:41.808Z,10.70
2017-11-13T00:28:09.226Z,12.17
2017-11-13T00:30:36.648Z,12.20
2017-11-13T00:33:04.839Z,9.90
2017-11-13T00:35:40.368Z,12.90
2017-11-13T00:38:11.324Z,12.27
2017-11-13T00:40:39.860Z,11.03
2017-11-13T00:43:07.975Z,12.70
2017-11-13T00:45:37.431Z,12.90
2017-11-13T00:48:06.914Z,10.50
2017-11-13T00:50:34.849Z,12.33
2017-11-13T00:53:02.548Z,11.00
2017-11-13T00:55:34.496Z,11.70
2017-11-13T00:58:10.645Z,11.57
2017-11-13T01:00:38.971Z,12.83
2017-11-13T01:03:10.393Z,12.57
2017-11-13T01:05:39.435Z,12.87
2017-11-13T01:08:12.907Z,11.60
2017-11-13T01:10:44.299Z,13.27
2017-11-13T01:13:15.064Z,11.90
2017-11-13T01:15:43.878Z,12.60
2017-11-13T01:18:13.055Z,12.20
2017-11-13T01:20:41.367Z,10.63
2017-11-13T01:23:11.483Z,12.00
2017-11-13T01:25:40.376Z,10.10
2017-11-13T01:28:08.313Z,13.37
2017-11-13T01:30:37.065Z,12.47
2017-11-13T01:33:06.146Z,10.67
2017-11-13T01:35:34.328Z,11.40
2017-11-13T01:38:03.893Z,10.10
2017-11-13T01:40:31.307Z,10.60
2017-11-13T01:42:59.635Z,10.33
2017-11-13T01:45:27.292Z,10.83
2017-11-13T01:47:56.583Z,11.00
2017-11-13T01:50:24.901Z,11.07
2017-11-13T01:52:55.742Z,11.20
2017-11-13T01:55:23.927Z,11.63
2017-11-13T01:57:52.334Z,9.27
2017-11-13T02:00:21.423Z,10.70
2017-11-13T02:02:48.808Z,9.40
2017-11-13T02:05:19.276Z,8.53
2017-11-13T02:07:49.898Z,9.10
2017-11-13T02:10:18.222Z,8.33
2017-11-13T02:12:48.733Z,8.83
2017-11-13T02:15:16.915Z,8.63
2017-11-13T02:17:47.193Z,9.50
2017-11-13T02:20:15.245Z,9.10
2017-11-13T02:22:42.667Z,8.87
2017-11-13T02:25:11.152Z,8.40
2017-11-13T02:27:39.849Z,9.33
2017-11-13T02:30:07.257Z,9.00
2017-11-13T02:32:36.971Z,8.70
2017-11-13T02:35:05.571Z,9.40
2017-11-13T02:37:34.889Z,9.17
2017-11-13T02:40:03.105Z,8.30
2017-11-13T02:42:31.581Z,8.60
2017-11-13T02:45:00.109Z,9.00
2017-11-13T02:47:29.282Z,8.57
2017-11-13T02:49:56.892Z,7.37
2017-11-13T02:52:26.218Z,7.93
2017-11-13T02:54:54.455Z,7.93
2017-11-13T02:57:24.165Z,8.23
2017-11-13T02:59:54.562Z,8.27
2017-11-13T03:02:23.651Z,8.00
2017-11-13T03:04:51.832Z,9.27
2017-11-13T03:07:31.852Z,10.53
2017-11-13T03:09:59.688Z,8.00
2017-11-13T03:12:27.619Z,9.13
2017-11-13T03:14:57.845Z,8.93
2017-11-13T03:17:29.211Z,8.40
2017-11-13T03:19:57.427Z,8.00
2017-11-13T03:22:26.842Z,9.10
2017-11-13T03:24:54.256Z,8.67
2017-11-13T03:27:22.485Z,8.33
2017-11-13T03:29:50.679Z,9.70
2017-11-13T03:32:19.990Z,9.57
2017-11-13T03:34:49.548Z,9.30
2017-11-13T03:37:41.230Z,7.83
2017-11-13T03:40:08.626Z,7.90
2017-11-13T03:42:36.029Z,9.03
2017-11-13T03:45:03.810Z,9.03
2017-11-13T03:47:32.485Z,9.17
2017-11-13T03:50:00.243Z,9.70
2017-11-13T03:52:30.512Z,10.37
2017-11-13T03:54:58.640Z,9.57
2017-11-13T03:57:27.602Z,8.33
2017-11-13T04:02:31.904Z,8.07
2017-11-13T04:05:03.046Z,8.70
2017-11-13T04:07:31.107Z,9.67
2017-11-13T04:09:58.519Z,8.93
2017-11-13T04:12:27.631Z,9.23
2017-11-13T04:14:57.231Z,10.73
2017-11-13T04:17:26.079Z,9.23
2017-11-13T04:19:54.399Z,8.30
2017-11-13T04:22:21.816Z,9.40
2017-11-13T04:24:49.225Z,8.90
2017-11-13T04:27:19.372Z,9.10
2017-11-13T04:29:47.689Z,9.33
2017-11-13T04:32:22.466Z,10.57
2017-11-13T04:34:49.846Z,9.93
2017-11-13T04:37:18.160Z,9.47
2017-11-13T04:39:51.262Z,9.27
2017-11-13T04:42:21.940Z,9.00
2017-11-13T04:44:50.922Z,8.07
2017-11-13T04:47:18.342Z,8.80
2017-11-13T04:49:46.676Z,9.90
2017-11-13T04:52:15.873Z,8.37
2017-11-13T04:54:45.145Z,7.37
2017-11-13T04:57:13.159Z,9.40
2017-11-13T04:59:41.335Z,7.63
2017-11-13T05:02:11.350Z,9.20
2017-11-13T05:04:38.760Z,7.60
2017-11-13T05:07:07.658Z,8.00
2017-11-13T05:09:35.872Z,7.10
2017-11-13T05:12:05.045Z,6.80
2017-11-13T05:14:34.483Z,8.03
2017-11-13T05:17:03.076Z,7.00
2017-11-13T05:19:33.382Z,9.30
2017-11-13T05:22:02.217Z,8.03
2017-11-13T05:24:30.484Z,7.97
2017-11-13T05:26:58.594Z,8.67
2017-11-13T05:29:25.998Z,7.20
2017-11-13T05:31:54.497Z,8.87
2017-11-13T05:34:23.877Z,9.37
2017-11-13T05:36:52.470Z,9.80
2017-11-13T05:39:19.863Z,8.27
2017-11-13T05:41:48.084Z,8.50
2017-11-13T05:44:18.914Z,9.73
2017-11-13T05:46:50.690Z,9.17
2017-11-13T05:49:22.548Z,8.73
2017-11-13T05:51:53.257Z,8.87
2017-11-13T05:54:21.423Z,9.00
2017-11-13T05:56:49.904Z,7.80
2017-11-13T05:59:18.206Z,7.93
2017-11-13T06:01:46.791Z,8.10
2017-11-13T06:04:15.123Z,8.40
2017-11-13T06:06:45.196Z,8.77
2017-11-13T06:09:13.728Z,8.03
2017-11-13T06:11:42.761Z,10.27
2017-11-13T06:14:10.177Z,8.43
2017-11-13T06:16:39.115Z,8.57
2017-11-13T06:19:06.901Z,8.63
2017-11-13T06:21:37.423Z,9.80
2017-11-13T06:24:05.751Z,8.80
2017-11-13T06:26:34.902Z,9.37
2017-11-13T06:29:04.414Z,8.70
2017-11-13T06:31:31.833Z,8.60
2017-11-13T06:34:00.022Z,10.33
2017-11-13T06:36:32.986Z,10.80
2017-11-13T06:39:00.388Z,9.40
2017-11-13T06:41:29.264Z,8.97
2017-11-13T06:43:59.618Z,9.37
2017-11-13T06:46:29.912Z,10.57
2017-11-13T06:48:59.491Z,9.47
2017-11-13T06:51:30.866Z,7.60
2017-11-13T06:56:50.415Z,8.37
2017-11-13T06:59:18.096Z,9.03
2017-11-13T07:01:46.283Z,7.27
2017-11-13T07:04:14.968Z,8.73
2017-11-13T07:06:43.064Z,7.00
2017-11-13T07:09:10.483Z,8.63
2017-11-13T07:11:39.951Z,9.43
2017-11-13T07:14:08.068Z,8.77
2017-11-13T07:16:39.746Z,7.53
2017-11-13T07:19:07.883Z,9.00
2017-11-13T07:21:36.608Z,7.90
2017-11-13T07:24:04.026Z,7.43
2017-11-13T07:26:34.200Z,7.97
2017-11-13T07:29:03.723Z,8.50
2017-11-13T07:31:33.429Z,7.80
2017-11-13T07:34:00.848Z,7.30
2017-11-13T07:36:30.055Z,7.67
2017-11-13T07:38:57.459Z,6.63
2017-11-13T07:41:27.110Z,7.40
2017-11-13T07:43:55.463Z,7.70
2017-11-13T07:46:25.584Z,5.80
2017-11-13T07:48:53.589Z,8.33
2017-11-13T07:51:25.611Z,7.23
2017-11-13T07:53:56.068Z,7.10
2017-11-13T07:56:25.303Z,7.10
2017-11-13T07:58:54.879Z,7.80
2017-11-13T08:01:25.811Z,7.67
2017-11-13T08:03:54.368Z,7.83
2017-11-13T08:06:22.531Z,7.80
2017-11-13T08:08:50.714Z,7.27
2017-11-13T08:11:20.096Z,8.40
2017-11-13T08:13:47.628Z,8.43
2017-11-13T08:16:16.569Z,6.47
2017-11-13T08:18:46.683Z,6.47
2017-11-13T08:21:17.955Z,7.70
2017-11-13T08:23:46.872Z,7.17
2017-11-13T08:26:14.280Z,6.13
2017-11-13T08:28:43.709Z,6.80
2017-11-13T08:31:11.820Z,6.23
2017-11-13T08:33:39.761Z,7.03
2017-11-13T08:36:07.812Z,5.70
2017-11-13T08:38:35.221Z,6.60
2017-11-13T08:41:03.763Z,5.70
2017-11-13T08:43:32.086Z,7.10
2017-11-13T08:45:59.511Z,5.83
2017-11-13T08:48:27.167Z,4.90
2017-11-13T08:50:56.459Z,4.70
2017-11-13T08:53:27.404Z,4.90
2017-11-13T08:55:55.910Z,5.37
2017-11-13T08:58:25.075Z,5.07
2017-11-13T09:00:53.294Z,4.80
2017-11-13T09:03:22.598Z,4.90
2017-11-13T09:05:50.007Z,5.00
2017-11-13T09:08:17.561Z,5.50
2017-11-13T09:10:44.966Z,5.63
2017-11-13T09:13:22.357Z,4.37
2017-11-13T09:15:52.960Z,5.93
2017-11-13T09:18:21.173Z,4.53
2017-11-13T09:20:50.091Z,4.50
2017-11-13T09:23:18.367Z,5.40
2017-11-13T09:25:46.170Z,5.07
2017-11-13T09:28:15.244Z,5.20
2017-11-13T09:30:45.573Z,4.93
2017-11-13T09:33:15.814Z,5.00
2017-11-13T09:35:44.265Z,5.90
2017-11-13T09:38:12.112Z,4.73
2017-11-13T09:40:42.025Z,5.40
2017-11-13T09:43:12.407Z,4.87
2017-11-13T09:45:43.454Z,4.27
2017-11-13T09:48:10.872Z,4.00
2017-11-13T09:50:39.630Z,4.17
2017-11-13T09:53:09.637Z,4.50
2017-11-13T09:55:38.096Z,4.23
2017-11-13T09:58:06.312Z,5.10
2017-11-13T10:00:36.580Z,4.70
2017-11-13T10:03:05.902Z,4.60
2017-11-13T10:05:36.496Z,4.20
2017-11-13T10:08:04.533Z,4.60
2017-11-13T10:10:35.621Z,3.67
2017-11-13T10:13:05.371Z,5.33
2017-11-13T10:15:34.111Z,4.17
2017-11-13T10:18:04.604Z,4.63
2017-11-13T10:20:34.352Z,4.17
2017-11-13T10:23:02.923Z,4.50
2017-11-13T10:25:32.753Z,4.40
2017-11-13T10:28:03.426Z,4.87
2017-11-13T10:30:30.817Z,4.83
2017-11-13T10:35:35.748Z,4.13
2017-11-13T10:38:04.307Z,5.00
2017-11-13T10:40:34.380Z,3.70
2017-11-13T10:43:03.951Z,4.17
2017-11-13T10:45:32.803Z,3.13
2017-11-13T10:48:01.468Z,3.40
2017-11-13T10:50:29.785Z,3.40
2017-11-13T10:52:58.409Z,4.17
2017-11-13T10:55:27.119Z,3.10
2017-11-13T10:57:54.900Z,2.80
2017-11-13T11:00:24.398Z,3.13
2017-11-13T11:02:55.815Z,4.00
2017-11-13T11:05:23.984Z,2.90
2017-11-13T11:07:52.291Z,2.63
2017-11-13T11:10:23.278Z,3.03
2017-11-13T11:12:50.968Z,2.97
2017-11-13T11:15:23.943Z,2.43
2017-11-13T11:17:52.882Z,2.90
2017-11-13T11:20:27.261Z,2.80
2017-11-13T11:22:57.932Z,3.20
2017-11-13T11:25:27.255Z,2.73
2017-11-13T11:27:56.241Z,3.27
2017-11-13T11:30:38.397Z,2.40
2017-11-13T11:33:07.692Z,2.30
2017-11-13T11:35:56.928Z,2.47
2017-11-13T11:38:25.175Z,2.63
2017-11-13T11:40:56.256Z,2.10
2017-11-13T11:43:27.680Z,2.60
2017-11-13T11:45:56.275Z,2.20
2017-11-13T11:48:31.118Z,3.27
2017-11-13T11:51:00.748Z,2.23
2017-11-13T11:53:28.147Z,2.40
2017-11-13T11:55:57.572Z,2.80
2017-11-13T11:58:26.083Z,2.20
2017-11-13T12:00:53.499Z,2.53
2017-11-13T12:03:22.456Z,1.70
2017-11-13T12:05:52.453Z,2.00
2017-11-13T12:08:19.859Z,1.63
2017-11-13T12:10:50.103Z,1.60
2017-11-13T12:13:21.168Z,2.77
2017-11-13T12:15:50.008Z,2.00
2017-11-13T12:18:18.243Z,2.53
2017-11-13T12:20:49.523Z,2.67
2017-11-13T12:23:17.041Z,2.23
2017-11-13T12:25:44.480Z,1.77
2017-11-13T12:28:11.885Z,1.93
2017-11-13T12:30:39.299Z,2.40
2017-11-13T12:33:07.349Z,2.60
2017-11-13T12:35:35.556Z,2.03
2017-11-13T12:38:02.968Z,2.00
2017-11-13T12:40:31.146Z,2.10
2017-11-13T12:42:59.333Z,2.40
2017-11-13T12:45:27.529Z,2.50
2017-11-13T12:47:54.952Z,2.60
2017-11-13T12:50:23.799Z,3.80
2017-11-13T12:52:53.187Z,2.27
2017-11-13T12:55:23.623Z,3.40
2017-11-13T12:57:54.547Z,3.77
2017-11-13T13:00:22.536Z,2.50
2017-11-13T13:02:51.512Z,2.13
2017-11-13T13:05:19.632Z,2.13
2017-11-13T13:07:48.004Z,1.90
2017-11-13T13:10:21.079Z,1.60
2017-11-13T13:12:50.240Z,1.87
2017-11-13T13:15:18.521Z,1.70
2017-11-13T13:17:47.009Z,1.80
2017-11-13T13:20:15.384Z,1.80
2017-11-13T13:22:46.187Z,1.90
2017-11-13T13:25:15.082Z,2.63
2017-11-13T13:27:42.835Z,2.00
2017-11-13T13:30:12.280Z,2.33
2017-11-13T13:32:39.681Z,2.50
2017-11-13T13:35:09.248Z,2.13
2017-11-13T13:37:36.654Z,2.57
2017-11-13T13:40:09.083Z,2.10
2017-11-13T13:42:40.717Z,2.43
2017-11-13T13:45:08.491Z,2.20
2017-11-13T13:47:37.176Z,2.00
2017-11-13T13:50:04.601Z,2.97
2017-11-13T13:52:34.904Z,2.43
2017-11-13T13:55:04.694Z,2.20
2017-11-13T13:57:33.548Z,2.10
2017-11-13T14:00:00.982Z,2.40
2017-11-13T14:02:29.187Z,2.70
2017-11-13T14:04:57.540Z,2.83
2017-11-13T14:07:27.835Z,2.67
2017-11-13T14:09:55.247Z,2.60
2017-11-13T14:12:22.659Z,2.17
2017-11-13T14:14:51.970Z,2.17
2017-11-13T14:17:20.270Z,2.20
2017-11-13T14:19:48.853Z,2.43
2017-11-13T14:22:18.674Z,1.60
2017-11-13T14:24:46.844Z,2.23
2017-11-13T14:27:15.613Z,2.13
2017-11-13T14:29:45.700Z,2.43
2017-11-13T14:32:15.372Z,2.17
2017-11-13T14:34:43.601Z,2.57
2017-11-13T14:37:14.050Z,1.90
2017-11-13T14:39:42.607Z,1.97
2017-11-13T14:42:10.803Z,1.90
2017-11-13T14:44:38.195Z,1.60
2017-11-13T14:47:09.722Z,2.40
2017-11-13T14:49:38.016Z,1.70
2017-11-13T14:52:05.790Z,1.80
2017-11-13T14:54:33.208Z,1.60
2017-11-13T14:57:01.874Z,2.13
2017-11-13T14:59:34.365Z,1.97
2017-11-13T15:02:04.450Z,1.90
2017-11-13T15:04:34.428Z,1.90
2017-11-13T15:07:03.309Z,1.53
2017-11-13T15:09:31.560Z,2.00
2017-11-13T15:11:58.972Z,2.13
2017-11-13T15:14:34.102Z,1.70
2017-11-13T15:17:05.964Z,2.00
2017-11-13T15:19:34.154Z,1.90
2017-11-13T15:22:03.753Z,1.63
2017-11-13T15:24:31.145Z,1.83
2017-11-13T15:26:59.446Z,2.27
2017-11-13T15:29:28.537Z,2.07
2017-11-13T15:32:00.146Z,1.60
2017-11-13T15:34:28.598Z,2.67
2017-11-13T15:36:56.524Z,2.60
2017-11-13T15:39:28.815Z,2.90
2017-11-13T15:41:57.002Z,3.10
2017-11-13T15:44:24.417Z,3.33
2017-11-13T15:46:54.355Z,3.70
2017-11-13T15:49:24.060Z,3.10
2017-11-13T15:51:51.694Z,2.80
2017-11-13T15:54:20.378Z,2.90
2017-11-13T15:56:49.076Z,3.17
2017-11-13T15:59:17.702Z,3.57
2017-11-13T16:01:45.495Z,2.93
2017-11-13T16:04:14.858Z,3.73
2017-11-13T16:06:46.544Z,3.30
2017-11-13T16:09:13.944Z,3.13
2017-11-13T16:11:43.627Z,3.00
2017-11-13T16:14:18.694Z,3.53
2017-11-13T16:16:48.878Z,3.50
2017-11-13T16:19:17.344Z,3.63
2017-11-13T16:24:19.715Z,3.30
2017-11-13T16:26:51.687Z,3.33
2017-11-13T16:29:20.801Z,3.60
2017-11-13T16:31:50.255Z,3.90
2017-11-13T16:34:18.784Z,4.40
2017-11-13T16:36:52.298Z,3.90
2017-11-13T16:39:21.982Z,4.10
2017-11-13T16:41:52.924Z,4.10
2017-11-13T16:44:24.315Z,4.20
2017-11-13T16:46:52.722Z,5.00
2017-11-13T16:49:24.731Z,5.83
2017-11-13T16:51:54.901Z,4.70
2017-11-13T16:54:24.292Z,4.73
2017-11-13T16:59:27.358Z,4.10
2017-11-13T17:01:54.751Z,4.53
2017-11-13T17:04:24.735Z,5.07
2017-11-13T17:06:52.916Z,5.30
2017-11-13T17:09:24.454Z,6.27
2017-11-13T17:11:54.219Z,5.30
2017-11-13T17:14:24.187Z,4.37
2017-11-13T17:16:56.858Z,4.70
2017-11-13T17:19:25.815Z,4.73
2017-11-13T17:21:54.032Z,5.20
2017-11-13T17:24:24.364Z,4.87
2017-11-13T17:26:51.954Z,4.93
2017-11-13T17:29:22.018Z,6.87
2017-11-13T17:31:51.034Z,5.33
2017-11-13T17:34:20.899Z,5.03
2017-11-13T17:36:48.311Z,5.97
2017-11-13T17:39:16.882Z,5.03
2017-11-13T17:41:45.853Z,6.13
2017-11-13T17:44:14.154Z,6.37
2017-11-13T17:46:43.126Z,6.07
2017-11-13T17:49:12.611Z,5.80
2017-11-13T17:51:41.564Z,5.07
2017-11-13T17:54:09.743Z,5.57
2017-11-13T17:56:38.268Z,5.00
2017-11-13T17:59:08.839Z,5.13
2017-11-13T18:01:37.955Z,5.10
2017-11-13T18:04:05.780Z,6.37
2017-11-13T18:06:34.083Z,5.57
2017-11-13T18:09:01.497Z,6.13
2017-11-13T18:11:29.584Z,5.60
2017-11-13T18:13:58.171Z,5.03
2017-11-13T18:16:25.586Z,6.30
2017-11-13T18:18:55.443Z,5.50
2017-11-13T18:21:42.271Z,5.40
2017-11-13T18:24:11.293Z,6.13
2017-11-13T18:26:42.060Z,5.47
2017-11-13T18:29:09.483Z,7.17
2017-11-13T18:31:39.906Z,6.10
2017-11-13T18:34:09.167Z,8.30
2017-11-13T18:36:39.022Z,7.13
2017-11-13T18:39:07.381Z,6.00
2017-11-13T18:41:34.787Z,5.97
2017-11-13T18:44:03.942Z,7.97
2017-11-13T18:46:32.869Z,5.87
2017-11-13T18:49:03.114Z,7.00
2017-11-13T18:51:31.817Z,6.50
2017-11-13T18:53:59.991Z,6.20
2017-11-13T18:56:34.845Z,6.37
2017-11-13T18:59:03.151Z,6.23
2017-11-13T19:01:30.567Z,7.23
2017-11-13T19:03:58.631Z,7.20
2017-11-13T19:06:26.819Z,7.03
2017-11-13T19:08:56.222Z,6.70
2017-11-13T19:11:24.330Z,7.07
2017-11-13T19:13:52.964Z,7.70
2017-11-13T19:16:22.627Z,8.00
2017-11-13T19:18:50.990Z,7.30
2017-11-13T19:21:20.151Z,8.60
2017-11-13T19:23:47.990Z,8.40
2017-11-13T19:26:15.503Z,7.47
2017-11-13T19:28:45.278Z,9.80
2017-11-13T19:31:15.560Z,10.00
2017-11-13T19:33:44.571Z,8.43
2017-11-13T19:36:11.988Z,8.13
2017-11-13T19:38:42.879Z,8.70
2017-11-13T19:41:12.515Z,8.03
2017-11-13T19:43:41.664Z,8.47
2017-11-13T19:46:11.215Z,7.73
2017-11-13T19:48:38.631Z,7.60
2017-11-13T19:51:06.453Z,7.40
2017-11-13T19:53:35.033Z,7.47
2017-11-13T19:56:03.364Z,6.90
2017-11-13T19:58:32.190Z,7.00
2017-11-13T20:01:00.891Z,8.70
2017-11-13T20:03:31.100Z,9.23
2017-11-13T20:05:59.152Z,8.57
2017-11-13T20:08:28.487Z,9.30
2017-11-13T20:10:56.134Z,9.50
2017-11-13T20:13:25.230Z,9.57
2017-11-13T20:15:53.904Z,9.30
2017-11-13T20:18:23.510Z,9.80
2017-11-13T20:20:51.166Z,8.37
2017-11-13T20:23:19.194Z,8.40
2017-11-13T20:25:46.596Z,8.57
2017-11-13T20:28:15.133Z,8.33
2017-11-13T20:30:43.349Z,9.90
2017-11-13T20:33:13.185Z,8.57
2017-11-13T20:35:40.600Z,8.00
2017-11-13T20:38:09.554Z,9.27
2017-11-13T20:40:39.475Z,7.20
2017-11-13T20:43:09.470Z,8.53
2017-11-13T20:45:37.495Z,9.07
2017-11-13T20:48:07.680Z,8.87
2017-11-13T20:50:35.766Z,6.60
2017-11-13T20:53:03.292Z,8.87
2017-11-13T20:55:34.610Z,8.50
2017-11-13T20:58:03.138Z,9.10
2017-11-13T21:00:32.113Z,10.00
2017-11-13T21:03:01.041Z,10.17
2017-11-13T21:05:32.207Z,9.17
2017-11-13T21:08:06.538Z,9.73
2017-11-13T21:10:35.355Z,10.07
2017-11-13T21:13:03.871Z,9.70
2017-11-13T21:15:31.637Z,8.57
2017-11-13T21:17:59.034Z,10.60
2017-11-13T21:20:26.450Z,10.40
2017-11-13T21:22:53.881Z,9.93
2017-11-13T21:25:24.210Z,10.47
2017-11-13T21:27:59.290Z,11.13
2017-11-13T21:30:30.389Z,10.50
2017-11-13T21:33:00.287Z,10.70
2017-11-13T21:35:28.914Z,12.33
2017-11-13T21:37:56.342Z,13.03
2017-11-13T21:40:23.762Z,13.13
2017-11-13T21:42:55.384Z,13.87
2017-11-13T21:45:25.655Z,12.03
2017-11-13T21:47:55.224Z,14.37
2017-11-13T21:50:25.084Z,11.07
2017-11-13T21:52:53.187Z,13.60
2017-11-13T21:55:23.699Z,11.37
2017-11-13T21:57:54.539Z,12.40
2017-11-13T22:00:23.879Z,13.60
2017-11-13T22:02:52.886Z,12.33
2017-11-13T22:05:23.308Z,13.20
2017-11-13T22:07:51.252Z,12.30
2017-11-13T22:10:19.374Z,11.30
2017-11-13T22:12:48.523Z,11.30
2017-11-13T22:15:17.622Z,11.67
2017-11-13T22:17:48.767Z,10.80
2017-11-13T22:20:16.947Z,11.60
2017-11-13T22:22:46.491Z,12.57
2017-11-13T22:25:16.407Z,11.77
2017-11-13T22:27:45.057Z,11.10
2017-11-13T22:30:14.236Z,13.23
2017-11-13T22:32:42.823Z,13.20
2017-11-13T22:35:11.027Z,13.60
2017-11-13T22:37:41.811Z,14.27
2017-11-13T22:40:12.034Z,12.57
2017-11-13T22:42:42.857Z,14.17
2017-11-13T22:45:12.015Z,12.30
2017-11-13T22:47:39.413Z,13.43
2017-11-13T22:50:06.836Z,11.07
2017-11-13T22:52:34.242Z,13.00
2017-11-13T22:55:02.551Z,13.03
2017-11-13T22:57:31.205Z,12.77
2017-11-13T23:00:01.132Z,13.67
2017-11-13T23:02:29.987Z,13.70
2017-11-13T23:04:57.409Z,14.40
2017-11-13T23:07:26.746Z,14.03
2017-11-13T23:09:56.663Z,13.10
2017-11-13T23:12:25.911Z,13.30
2017-11-13T23:14:57.908Z,15.63
2017-11-13T23:17:25.326Z,14.10
2017-11-13T23:19:55.964Z,15.90
2017-11-13T23:22:25.682Z,13.07
2017-11-13T23:24:54.005Z,11.80
2017-11-13T23:27:21.429Z,12.63
2017-11-13T23:29:50.987Z,14.27
2017-11-13T23:32:23.168Z,14.90
2017-11-13T23:34:54.179Z,13.60
2017-11-13T23:37:21.603Z,12.97
2017-11-13T23:39:52.401Z,12.50
2017-11-13T23:42:20.597Z,11.67
2017-11-13T23:44:48.626Z,13.03
2017-11-13T23:47:16.055Z,11.07
2017-11-13T23:49:44.317Z,11.77
2017-11-13T23:52:11.772Z,11.50
2017-11-13T23:54:39.179Z,11.07
2017-11-13T23:57:08.707Z,10.87
2017-11-13T23:59:37.312Z,11.30
